Time,TemperatureF,DewpointF,PressureIn,WindDirection,WindDirectionDegrees,WindSpeedMPH,WindSpeedGustMPH,Humidity,HourlyPrecipIn,Conditions,Clouds,dailyrainin,SoftwareType,DateUTC
2013-08-16 00:13:00,54.0,53.0,30.18,West,266,0.0,0.0,96,0.00,,,0.00,,2013-08-16 04:13:00,
2013-08-16 00:23:00,54.0,53.0,30.19,West,266,0.0,0.0,96,0.00,,,0.00,,2013-08-16 04:23:00,
2013-08-16 00:53:00,53.0,52.0,30.19,West,266,0.0,0.0,97,0.00,,,0.00,,2013-08-16 04:53:00,
2013-08-16 01:12:00,53.0,52.0,30.18,West,266,0.0,0.0,97,0.00,,,0.00,,2013-08-16 05:12:00,
2013-08-16 01:22:00,53.0,52.0,30.18,West,265,0.0,0.0,97,0.00,,,0.00,,2013-08-16 05:22:00,
2013-08-16 01:59:00,52.0,51.0,30.18,West,266,0.0,0.0,97,0.00,,,0.00,,2013-08-16 05:59:00,
2013-08-16 03:00:00,51.0,50.0,30.17,West,265,0.0,0.0,98,0.00,,,0.00,,2013-08-16 07:00:00,
2013-08-16 03:11:00,51.0,50.0,30.17,West,266,0.0,0.0,98,0.00,,,0.00,,2013-08-16 07:11:00,
2013-08-16 03:21:00,51.0,50.0,30.17,West,266,0.0,0.0,98,0.00,,,0.00,,2013-08-16 07:21:00,
2013-08-16 03:42:00,50.0,49.0,30.17,West,266,0.0,0.0,98,0.00,,,0.00,,2013-08-16 07:42:00,
2013-08-16 03:52:00,50.0,49.0,30.17,West,266,0.0,0.0,98,0.00,,,0.00,,2013-08-16 07:52:00,
2013-08-16 04:11:00,50.0,49.0,30.17,West,266,0.0,0.0,98,0.00,,,0.00,,2013-08-16 08:11:00,
2013-08-16 04:21:00,50.0,49.0,30.17,West,266,0.0,0.0,98,0.00,,,0.00,,2013-08-16 08:21:00,
2013-08-16 04:42:00,50.0,49.0,30.18,West,266,0.0,0.0,98,0.00,,,0.00,,2013-08-16 08:42:00,
2013-08-16 04:52:00,50.0,49.0,30.17,West,266,0.0,0.0,98,0.00,,,0.00,,2013-08-16 08:52:00,
2013-08-16 05:11:00,50.0,49.0,30.17,West,266,0.0,0.0,98,0.00,,,0.00,,2013-08-16 09:11:00,
2013-08-16 05:21:00,50.0,49.0,30.18,West,266,0.0,0.0,98,0.00,,,0.00,,2013-08-16 09:21:00,
2013-08-16 05:53:00,49.0,48.0,30.19,West,266,0.0,0.0,98,0.00,,,0.00,,2013-08-16 09:53:00,
2013-08-16 06:13:00,49.0,48.0,30.19,West,266,0.0,0.0,98,0.00,,,0.00,,2013-08-16 10:13:00,
2013-08-16 06:23:00,49.0,48.0,30.19,West,266,0.0,0.0,98,0.00,,,0.00,,2013-08-16 10:23:00,
2013-08-16 06:52:00,50.0,49.0,30.20,West,266,0.0,0.0,98,0.00,,,0.00,,2013-08-16 10:52:00,
2013-08-16 07:12:00,50.0,49.0,30.20,West,266,0.0,0.0,98,0.00,,,0.00,,2013-08-16 11:12:00,
2013-08-16 07:22:00,51.0,50.0,30.20,West,266,0.0,0.0,98,0.00,,,0.00,,2013-08-16 11:22:00,
2013-08-16 07:42:00,52.0,51.0,30.21,West,266,0.0,0.0,98,0.00,,,0.00,,2013-08-16 11:42:00,
2013-08-16 07:52:00,53.0,52.0,30.21,West,266,0.0,0.0,98,0.00,,,0.00,,2013-08-16 11:52:00,
2013-08-16 08:12:00,53.0,52.0,30.21,West,266,0.0,0.0,98,0.00,,,0.00,,2013-08-16 12:12:00,
2013-08-16 08:21:00,57.0,56.0,30.21,West,266,0.0,0.0,98,0.00,,,0.00,,2013-08-16 12:21:00,
2013-08-16 08:52:00,59.0,57.0,30.21,West,273,0.0,0.0,94,0.00,,,0.00,,2013-08-16 12:52:00,
2013-08-16 09:11:00,62.0,59.0,30.21,West,273,0.0,0.0,89,0.00,,,0.00,,2013-08-16 13:11:00,
2013-08-16 09:22:00,64.0,59.0,30.21,SSW,200,0.0,0.0,84,0.00,,,0.00,,2013-08-16 13:22:00,
2013-08-16 09:42:00,67.0,59.0,30.21,SW,218,0.0,0.0,76,0.00,,,0.00,,2013-08-16 13:42:00,
2013-08-16 09:53:00,67.0,59.0,30.21,SW,218,0.0,0.0,75,0.00,,,0.00,,2013-08-16 13:53:00,
2013-08-16 10:11:00,69.0,59.0,30.21,SW,218,0.0,0.0,71,0.00,,,0.00,,2013-08-16 14:11:00,
2013-08-16 10:22:00,70.0,59.0,30.21,SW,233,0.0,0.0,69,0.00,,,0.00,,2013-08-16 14:22:00,
2013-08-16 10:42:00,71.0,58.0,30.21,WSW,257,1.0,2.0,64,0.00,,,0.00,,2013-08-16 14:42:00,
2013-08-16 10:52:00,71.0,58.0,30.21,SSE,166,2.0,4.0,63,0.00,,,0.00,,2013-08-16 14:52:00,
2013-08-16 11:12:00,72.0,58.0,30.21,SSW,210,1.0,3.0,62,0.00,,,0.00,,2013-08-16 15:12:00,
2013-08-16 11:22:00,73.0,59.0,30.21,SSE,153,1.0,8.0,61,0.00,,,0.00,,2013-08-16 15:22:00,
2013-08-16 11:43:00,74.0,58.0,30.21,SE,146,1.0,4.0,58,0.00,,,0.00,,2013-08-16 15:43:00,
2013-08-16 11:56:00,72.0,56.0,30.21,WSW,246,1.0,3.0,57,0.00,,,0.00,,2013-08-16 15:56:00,
2013-08-16 12:13:00,73.0,57.0,30.21,East,94,1.0,5.0,58,0.00,,,0.00,,2013-08-16 16:13:00,
2013-08-16 12:23:00,72.0,57.0,30.21,West,263,0.0,2.0,59,0.00,,,0.00,,2013-08-16 16:23:00,
2013-08-16 12:57:00,73.0,57.0,30.21,SW,235,0.0,3.0,58,0.00,,,0.00,,2013-08-16 16:57:00,
2013-08-16 13:13:00,74.0,56.0,30.20,SSE,158,1.0,6.0,54,0.00,,,0.00,,2013-08-16 17:13:00,
2013-08-16 13:28:00,75.0,56.0,30.20,WSW,246,1.0,5.0,52,0.00,,,0.00,,2013-08-16 17:28:00,
2013-08-16 13:47:00,74.0,56.0,30.20,West,270,1.0,6.0,54,0.00,,,0.00,,2013-08-16 17:47:00,
2013-08-16 14:00:00,73.0,56.0,30.20,North,355,0.0,1.0,56,0.00,,,0.00,,2013-08-16 18:00:00,
2013-08-16 14:15:00,75.0,57.0,30.20,South,188,0.0,1.0,54,0.00,,,0.00,,2013-08-16 18:15:00,
2013-08-16 14:28:00,74.0,56.0,30.20,WSW,255,0.0,4.0,54,0.00,,,0.00,,2013-08-16 18:28:00,
2013-08-16 14:50:00,-999.0,-99.9,30.20,WNW,287,2.0,6.0,51,0.00,,,0.00,,2013-08-16 18:50:00,
2013-08-16 15:14:00,76.0,57.0,30.19,SW,214,1.0,3.0,52,0.00,,,0.00,,2013-08-16 19:14:00,
2013-08-16 15:25:00,75.0,56.0,30.19,ENE,58,2.0,3.0,51,0.00,,,0.00,,2013-08-16 19:25:00,
2013-08-16 15:55:00,75.0,57.0,30.19,NW,321,0.0,1.0,53,0.00,,,0.00,,2013-08-16 19:55:00,
2013-08-16 16:11:00,75.0,57.0,30.19,WSW,249,0.0,3.0,54,0.00,,,0.00,,2013-08-16 20:11:00,
2013-08-16 16:23:00,75.0,55.0,30.18,ENE,76,1.0,2.0,49,0.00,,,0.00,,2013-08-16 20:23:00,
2013-08-16 16:52:00,77.0,57.0,30.18,West,263,2.0,5.0,50,0.00,,,0.00,,2013-08-16 20:52:00,
2013-08-16 17:11:00,76.0,55.0,30.19,WNW,284,0.0,2.0,49,0.00,,,0.00,,2013-08-16 21:11:00,
2013-08-16 17:25:00,74.0,55.0,30.19,West,269,0.0,1.0,51,0.00,,,0.00,,2013-08-16 21:25:00,
2013-08-16 17:40:00,-999.0,-99.9,30.19,West,268,0.0,0.0,-999,0.00,,,0.00,,2013-08-16 21:40:00,
2013-08-16 17:53:00,76.0,57.0,30.19,West,270,1.0,2.0,51,0.00,,,0.00,,2013-08-16 21:53:00,
2013-08-16 18:13:00,75.0,55.0,30.19,NE,50,1.0,3.0,49,0.00,,,0.00,,2013-08-16 22:13:00,
2013-08-16 18:24:00,74.0,57.0,30.19,SSE,149,0.0,2.0,55,0.00,,,0.00,,2013-08-16 22:24:00,
2013-08-16 18:52:00,76.0,57.0,30.19,SW,227,0.0,1.0,51,0.00,,,0.00,,2013-08-16 22:52:00,
2013-08-16 19:12:00,76.0,57.0,30.19,West,259,0.0,2.0,52,0.00,,,0.00,,2013-08-16 23:12:00,
2013-08-16 19:52:00,72.0,59.0,30.20,NNE,32,0.0,1.0,64,0.00,,,0.00,,2013-08-16 23:52:00,
2013-08-16 20:11:00,69.0,59.0,30.20,NNE,32,0.0,0.0,70,0.00,,,0.00,,2013-08-17 00:11:00,
2013-08-16 20:21:00,67.0,59.0,30.21,NNE,32,0.0,0.0,75,0.00,,,0.00,,2013-08-17 00:21:00,
2013-08-16 20:42:00,65.0,58.0,30.22,NNE,32,0.0,0.0,78,0.00,,,0.00,,2013-08-17 00:42:00,
2013-08-16 20:52:00,64.0,58.0,30.22,NNE,32,0.0,0.0,80,0.00,,,0.00,,2013-08-17 00:52:00,
2013-08-16 21:11:00,65.0,59.0,30.22,NNE,32,0.0,0.0,80,0.00,,,0.00,,2013-08-17 01:11:00,
2013-08-16 21:21:00,63.0,58.0,30.23,NNE,32,0.0,0.0,83,0.00,,,0.00,,2013-08-17 01:21:00,
2013-08-16 21:42:00,62.0,57.0,30.23,NNE,32,0.0,0.0,85,0.00,,,0.00,,2013-08-17 01:42:00,
2013-08-16 21:52:00,61.0,57.0,30.23,NNE,32,0.0,0.0,88,0.00,,,0.00,,2013-08-17 01:52:00,
2013-08-16 22:11:00,60.0,57.0,30.24,NNE,32,0.0,0.0,89,0.00,,,0.00,,2013-08-17 02:11:00,
2013-08-16 22:21:00,59.0,56.0,30.24,NNE,32,0.0,0.0,91,0.00,,,0.00,,2013-08-17 02:21:00,
2013-08-16 22:42:00,59.0,57.0,30.24,NNE,32,0.0,0.0,92,0.00,,,0.00,,2013-08-17 02:42:00,
2013-08-16 22:52:00,59.0,57.0,30.24,NNE,32,0.0,0.0,93,0.00,,,0.00,,2013-08-17 02:52:00,
2013-08-16 23:11:00,58.0,56.0,30.24,NNE,32,0.0,0.0,94,0.00,,,0.00,,2013-08-17 03:11:00,
2013-08-16 23:22:00,58.0,56.0,30.25,NNE,32,0.0,0.0,94,0.00,,,0.00,,2013-08-17 03:22:00,
2013-08-16 23:53:00,57.0,56.0,30.25,NNE,32,0.0,0.0,95,0.00,,,0.00,,2013-08-17 03:53:00,